Anaheim, California
Current Conditions -  °F | °C
As of 1:53 AM on Friday 31 Oct 2014 (Local Time) from KFUL Reporting Station
Clear Clear  
Wind Chill: 62°   Ceiling: Unl
Heat Index: 62°   Visibility: 10mi
Dew Point: 57°   Wind: 3mph
Humidity: 84%   Direction: 80°E
Pressure: 29.95"   Gusts: NA
Location:  33.83°N, 117.91°W
Report Text: KFUL 310853Z 08003KT 10SM CLR 17/14 A2995 RMK AO2 SLP142 T01670139 56005 $
Loading
Personal Weather Stations






























Interactive Weather Map New forecast layout! Learn more

10-Day Weather Forecast

Advertisements
Track Severe Weather on mobile